Time;durP1;ratioP1;P1;durP2;ratioP2;P2;SDS_P1;SDS_P2;PMS_P1;PMS_P2;Temp;Humidity;BMP_temperature;BMP_pressure;BME280_temperature;BME280_humidity;BME280_pressure;Samples;Min_cycle;Max_cycle;Signal;HPM_P1;HPM_P2
2022/04/01 00:00:50;;;;;;;5.90;5.32;;;;;;;;;;6100687;23;20031;-83
2022/04/01 00:03:18;;;;;;;8.07;5.07;;;;;;;;;;6078506;23;20014;-83
2022/04/01 00:05:46;;;;;;;8.15;6.85;;;;;;;;;;6044834;23;20568;-83
2022/04/01 00:08:14;;;;;;;7.13;5.93;;;;;;;;;;6066941;23;20025;-83
2022/04/01 00:10:43;;;;;;;7.30;5.82;;;;;;;;;;6078909;23;20015;-83
2022/04/01 00:13:12;;;;;;;7.55;6.10;;;;;;;;;;6074314;23;20038;-83
2022/04/01 00:15:56;;;;;;;13.90;9.35;;;;;;;;;;6104089;23;20022;-83
2022/04/01 00:19:23;;;;;;;11.68;6.90;;;;;;;;;;6079468;23;20027;-83
2022/04/01 00:22:50;;;;;;;8.38;5.47;;;;;;;;;;6093027;23;20026;-83
2022/04/01 00:26:01;;;;;;;7.43;6.57;;;;;;;;;;6096123;23;20023;-82
2022/04/01 00:29:36;;;;;;;7.80;7.10;;;;;;;;;;6066611;23;20029;-83
2022/04/01 00:32:56;;;;;;;8.70;7.53;;;;;;;;;;6076619;23;20057;-83
2022/04/01 00:36:07;;;;;;;13.18;8.40;;;;;;;;;;6065869;23;20041;-83
2022/04/01 00:39:39;;;;;;;11.23;6.78;;;;;;;;;;6118047;23;20567;-83
2022/04/01 00:43:08;;;;;;;7.10;5.53;;;;;;;;;;6069081;23;20026;-83
2022/04/01 00:46:11;;;;;;;8.40;6.32;;;;;;;;;;6070944;23;20022;-82
2022/04/01 00:48:39;;;;;;;7.13;5.95;;;;;;;;;;6043059;23;20477;-83
2022/04/01 00:51:08;;;;;;;9.50;6.50;;;;;;;;;;6067820;23;20018;-84
2022/04/01 00:53:36;;;;;;;8.25;5.63;;;;;;;;;;6070985;23;20034;-82
2022/04/01 00:56:15;;;;;;;10.68;6.93;;;;;;;;;;6103941;23;20018;-82
2022/04/01 00:59:34;;;;;;;10.55;7.72;;;;;;;;;;6060614;23;20053;-82
2022/04/01 01:02:42;;;;;;;7.65;5.60;;;;;;;;;;6093137;23;20027;-82
2022/04/01 01:05:31;;;;;;;7.40;5.80;;;;;;;;;;6043707;23;20347;-82
2022/04/01 01:07:59;;;;;;;7.47;6.57;;;;;;;;;;6067191;23;20019;-82
2022/04/01 01:10:27;;;;;;;7.93;6.63;;;;;;;;;;6068363;23;20026;-83
2022/04/01 01:12:55;;;;;;;6.80;4.05;;;;;;;;;;6074080;23;20492;-82
2022/04/01 01:15:26;;;;;;;5.13;3.22;;;;;;;;;;6044244;23;20022;-83
2022/04/01 01:17:55;;;;;;;3.85;3.05;;;;;;;;;;6069671;23;20026;-82
2022/04/01 01:20:24;;;;;;;4.55;2.88;;;;;;;;;;6075969;23;20751;-83
2022/04/01 01:22:53;;;;;;;5.07;4.63;;;;;;;;;;6077529;23;20022;-83
2022/04/01 01:25:21;;;;;;;4.13;3.17;;;;;;;;;;6072131;23;20599;-84
2022/04/01 01:27:49;;;;;;;3.78;3.33;;;;;;;;;;6103281;23;20033;-85
2022/04/01 01:30:17;;;;;;;2.65;2.45;;;;;;;;;;6094256;23;20034;-83
2022/04/01 01:32:46;;;;;;;2.33;2.17;;;;;;;;;;6100016;23;20022;-83
2022/04/01 01:35:14;;;;;;;5.43;3.30;;;;;;;;;;6077040;23;20026;-83
2022/04/01 01:37:42;;;;;;;7.90;3.17;;;;;;;;;;6095639;23;20026;-83
2022/04/01 01:40:10;;;;;;;3.55;2.25;;;;;;;;;;6076829;23;20010;-83
2022/04/01 01:42:38;;;;;;;2.58;2.38;;;;;;;;;;6078033;23;20014;-83
2022/04/01 01:45:07;;;;;;;5.38;3.60;;;;;;;;;;6073144;23;20042;-83
2022/04/01 01:47:35;;;;;;;8.25;3.28;;;;;;;;;;6103383;23;20025;-83
2022/04/01 01:55:37;;;;;;;2.50;2.30;;;;;;;;;;6077504;23;20041;-83
2022/04/01 01:58:05;;;;;;;2.90;2.67;;;;;;;;;;6068160;23;20037;-83
2022/04/01 02:00:36;;;;;;;2.97;2.70;;;;;;;;;;6067079;23;20038;-83
2022/04/01 02:03:04;;;;;;;2.45;2.22;;;;;;;;;;6103118;23;20037;-79
2022/04/01 02:05:34;;;;;;;4.18;2.83;;;;;;;;;;6097158;23;20030;-78
2022/04/01 02:08:05;;;;;;;3.35;2.88;;;;;;;;;;6075830;23;20021;-78
2022/04/01 02:10:34;;;;;;;2.42;2.22;;;;;;;;;;6067592;23;20033;-79
2022/04/01 02:13:03;;;;;;;2.90;2.70;;;;;;;;;;6073786;23;20030;-78
2022/04/01 02:15:32;;;;;;;3.40;2.85;;;;;;;;;;6101933;23;20030;-79
2022/04/01 02:18:03;;;;;;;4.10;2.90;;;;;;;;;;6066756;23;20034;-79
2022/04/01 02:20:33;;;;;;;3.70;3.17;;;;;;;;;;6100601;23;20030;-79
2022/04/01 02:23:01;;;;;;;3.08;2.80;;;;;;;;;;6102671;23;20041;-78
2022/04/01 02:25:30;;;;;;;12.13;3.85;;;;;;;;;;6071748;23;20454;-79
2022/04/01 02:27:59;;;;;;;2.75;2.55;;;;;;;;;;6077241;23;20018;-79
2022/04/01 02:30:27;;;;;;;2.80;2.55;;;;;;;;;;6067676;23;20347;-79
2022/04/01 02:33:14;;;;;;;2.67;2.45;;;;;;;;;;6097654;23;20018;-78
2022/04/01 02:35:45;;;;;;;3.25;3.05;;;;;;;;;;6075063;23;20019;-78
2022/04/01 02:38:13;;;;;;;2.67;2.58;;;;;;;;;;6066249;23;20034;-78
2022/04/01 02:40:42;;;;;;;3.25;2.95;;;;;;;;;;6074749;23;20069;-79
2022/04/01 02:43:10;;;;;;;3.08;2.53;;;;;;;;;;6044313;23;20362;-78
2022/04/01 02:45:40;;;;;;;2.83;1.83;;;;;;;;;;6070579;23;20030;-78
2022/04/01 02:48:09;;;;;;;2.83;2.47;;;;;;;;;;6104115;23;20019;-78
2022/04/01 02:50:57;;;;;;;2.55;2.33;;;;;;;;;;6069158;23;20019;-79
2022/04/01 02:53:26;;;;;;;2.80;2.58;;;;;;;;;;6072712;23;20533;-78
2022/04/01 02:55:54;;;;;;;3.80;2.47;;;;;;;;;;6079190;23;20011;-78
2022/04/01 02:58:23;;;;;;;4.05;3.00;;;;;;;;;;6068846;23;20026;-79
2022/04/01 03:00:52;;;;;;;3.40;2.33;;;;;;;;;;6075751;23;20035;-78
2022/04/01 03:03:21;;;;;;;2.00;1.90;;;;;;;;;;6078448;23;20075;-79
2022/04/01 03:05:50;;;;;;;2.35;2.15;;;;;;;;;;6095821;23;20734;-79
2022/04/01 03:08:18;;;;;;;6.45;2.50;;;;;;;;;;6102307;23;20731;-79
2022/04/01 03:10:46;;;;;;;3.08;2.83;;;;;;;;;;6078944;23;20014;-79
2022/04/01 03:13:14;;;;;;;3.20;2.38;;;;;;;;;;6099578;23;20338;-78
2022/04/01 03:16:02;;;;;;;3.58;2.38;;;;;;;;;;6083272;23;20334;-79
2022/04/01 03:18:41;;;;;;;2.60;2.38;;;;;;;;;;6067606;23;20022;-79
2022/04/01 03:21:11;;;;;;;3.00;2.80;;;;;;;;;;6098077;23;20033;-78
2022/04/01 03:23:43;;;;;;;3.47;2.53;;;;;;;;;;6102669;23;20034;-79
2022/04/01 03:26:15;;;;;;;3.55;3.25;;;;;;;;;;6094127;23;20034;-79
2022/04/01 03:28:49;;;;;;;2.70;2.50;;;;;;;;;;6099422;23;20026;-79
2022/04/01 03:31:19;;;;;;;3.97;2.55;;;;;;;;;;6079351;23;20014;-78
2022/04/01 03:33:47;;;;;;;3.65;2.88;;;;;;;;;;6068261;23;20496;-79
2022/04/01 03:36:15;;;;;;;4.00;3.60;;;;;;;;;;6099164;23;20018;-79
2022/04/01 03:38:48;;;;;;;2.45;2.22;;;;;;;;;;6103429;23;20021;-79
2022/04/01 03:41:23;;;;;;;3.67;2.28;;;;;;;;;;6073332;23;20351;-80
2022/04/01 03:43:52;;;;;;;2.88;2.60;;;;;;;;;;6078734;23;20336;-79
2022/04/01 03:46:24;;;;;;;4.10;2.38;;;;;;;;;;6093321;23;20027;-80
2022/04/01 03:48:56;;;;;;;3.25;2.60;;;;;;;;;;6074939;23;20034;-79
2022/04/01 03:51:25;;;;;;;3.15;2.95;;;;;;;;;;6104125;23;20015;-79
2022/04/01 03:53:55;;;;;;;4.18;2.03;;;;;;;;;;6094454;23;20026;-79
2022/04/01 03:56:34;;;;;;;2.50;2.25;;;;;;;;;;6100194;23;20018;-79
2022/04/01 03:59:42;;;;;;;2.30;1.95;;;;;;;;;;6044474;23;20442;-79
2022/04/01 04:02:23;;;;;;;2.65;2.45;;;;;;;;;;6094667;23;20034;-79
2022/04/01 04:04:52;;;;;;;2.05;1.75;;;;;;;;;;6099245;23;20026;-79
2022/04/01 04:07:20;;;;;;;2.50;2.13;;;;;;;;;;6044961;23;20014;-79
2022/04/01 04:09:50;;;;;;;1.90;1.80;;;;;;;;;;6071007;23;20354;-79
2022/04/01 04:12:20;;;;;;;3.63;2.05;;;;;;;;;;6103116;23;20014;-79
2022/04/01 04:14:54;;;;;;;2.22;2.03;;;;;;;;;;6079009;23;20037;-79
2022/04/01 04:17:31;;;;;;;2.53;2.35;;;;;;;;;;6073022;23;20026;-79
2022/04/01 04:19:59;;;;;;;1.50;1.40;;;;;;;;;;6078568;23;20018;-79
2022/04/01 04:22:35;;;;;;;2.10;1.95;;;;;;;;;;6067632;23;20030;-79
2022/04/01 04:25:10;;;;;;;3.40;2.17;;;;;;;;;;6074090;23;20030;-79
2022/04/01 04:27:48;;;;;;;2.70;2.47;;;;;;;;;;6044467;23;20021;-79
2022/04/01 04:30:16;;;;;;;1.92;1.60;;;;;;;;;;6069960;23;20485;-78
2022/04/01 04:32:56;;;;;;;2.30;1.30;;;;;;;;;;6044276;23;20037;-79
2022/04/01 04:35:26;;;;;;;2.33;1.73;;;;;;;;;;6077009;23;20498;-79
2022/04/01 04:37:56;;;;;;;1.58;1.45;;;;;;;;;;6069881;23;20355;-79
2022/04/01 04:40:25;;;;;;;5.75;3.97;;;;;;;;;;6076583;23;20018;-79
2022/04/01 04:43:18;;;;;;;2.03;1.92;;;;;;;;;;6078668;23;20011;-79
2022/04/01 04:45:49;;;;;;;2.42;2.22;;;;;;;;;;6097010;23;20365;-83
2022/04/01 04:48:18;;;;;;;1.60;1.50;;;;;;;;;;6077215;23;20438;-80
2022/04/01 04:50:47;;;;;;;10.35;3.00;;;;;;;;;;6077943;23;20018;-81
2022/04/01 04:53:16;;;;;;;2.38;2.17;;;;;;;;;;6098229;23;20042;-80
2022/04/01 04:55:47;;;;;;;2.20;2.00;;;;;;;;;;6069629;23;20024;-80
2022/04/01 04:58:21;;;;;;;1.85;1.75;;;;;;;;;;6068331;23;20490;-82
2022/04/01 05:01:02;;;;;;;2.55;2.00;;;;;;;;;;6073506;23;20034;-80
2022/04/01 05:03:40;;;;;;;1.85;1.75;;;;;;;;;;6078085;23;20015;-83
2022/04/01 05:06:12;;;;;;;2.25;2.15;;;;;;;;;;6093439;23;20370;-81
2022/04/01 05:09:21;;;;;;;2.13;1.92;;;;;;;;;;6064378;23;20046;-82
2022/04/01 05:12:06;;;;;;;2.63;2.38;;;;;;;;;;6078672;23;20014;-80
2022/04/01 05:15:11;;;;;;;2.28;2.08;;;;;;;;;;6042602;23;20047;-79
2022/04/01 05:17:40;;;;;;;2.10;2.00;;;;;;;;;;6058519;23;20029;-83
2022/04/01 05:20:15;;;;;;;6.53;1.73;;;;;;;;;;6077945;23;20014;-82
2022/04/01 05:22:53;;;;;;;1.88;1.67;;;;;;;;;;6052652;23;20034;-83
2022/04/01 05:25:26;;;;;;;2.38;2.17;;;;;;;;;;6095917;23;20026;-82
2022/04/01 05:28:02;;;;;;;2.50;2.00;;;;;;;;;;6077260;23;20021;-81
2022/04/01 05:30:38;;;;;;;;;;;;;;;;;;6067693;23;20027;-80
2022/04/01 05:33:10;;;;;;;1.65;1.48;;;;;;;;;;6050088;23;19930;-80
2022/04/01 05:35:41;;;;;;;1.90;1.63;;;;;;;;;;6067691;23;20023;-80
2022/04/01 05:38:10;;;;;;;;;;;;;;;;;;6068754;23;20022;-80
2022/04/01 05:40:41;;;;;;;2.20;2.10;;;;;;;;;;6074883;23;19917;-80
2022/04/01 05:43:13;;;;;;;1.58;1.48;;;;;;;;;;6103486;23;20018;-80
2022/04/01 05:45:43;;;;;;;1.75;1.65;;;;;;;;;;6096648;23;20026;-80
2022/04/01 05:48:14;;;;;;;2.40;2.15;;;;;;;;;;6076457;23;20014;-80
2022/04/01 05:50:44;;;;;;;4.57;1.73;;;;;;;;;;6077682;23;20017;-80
2022/04/01 05:53:12;;;;;;;1.58;1.48;;;;;;;;;;6097481;23;20042;-80
2022/04/01 05:55:48;;;;;;;1.58;1.48;;;;;;;;;;6078029;23;20521;-80
2022/04/01 05:58:16;;;;;;;2.97;2.67;;;;;;;;;;6093863;23;20022;-80
2022/04/01 06:00:53;;;;;;;2.00;1.88;;;;;;;;;;6043296;23;20022;-80
2022/04/01 06:03:39;;;;;;;1.45;1.35;;;;;;;;;;6103054;23;20018;-80
2022/04/01 06:06:14;;;;;;;1.42;1.33;;;;;;;;;;6045630;23;20030;-80
2022/04/01 06:08:50;;;;;;;3.22;2.67;;;;;;;;;;6072741;23;20022;-80
2022/04/01 06:11:38;;;;;;;1.25;1.23;;;;;;;;;;6093713;23;20465;-80
2022/04/01 06:14:26;;;;;;;2.00;1.77;;;;;;;;;;6070689;23;20037;-80
2022/04/01 06:17:25;;;;;;;2.63;2.42;;;;;;;;;;6053820;23;20469;-80
2022/04/01 06:19:56;;;;;;;2.17;1.88;;;;;;;;;;6103345;23;20017;-80
2022/04/01 06:22:28;;;;;;;1.90;1.80;;;;;;;;;;6069560;23;20037;-80
2022/04/01 06:25:16;;;;;;;1.45;1.35;;;;;;;;;;6074747;23;20339;-80
2022/04/01 06:27:50;;;;;;;1.80;1.70;;;;;;;;;;6103334;23;20022;-80
2022/04/01 06:30:19;;;;;;;2.17;1.85;;;;;;;;;;6094565;23;20022;-80
2022/04/01 06:33:01;;;;;;;1.60;1.50;;;;;;;;;;6077774;23;20049;-80
2022/04/01 06:35:57;;;;;;;1.83;1.73;;;;;;;;;;6102941;23;20037;-80
2022/04/01 06:38:40;;;;;;;1.60;1.50;;;;;;;;;;6069327;23;20052;-80
2022/04/01 06:41:13;;;;;;;3.05;1.50;;;;;;;;;;6073646;23;20541;-80
2022/04/01 06:43:53;;;;;;;1.98;1.77;;;;;;;;;;6079438;23;20011;-80
2022/04/01 06:46:40;;;;;;;1.80;1.42;;;;;;;;;;6094302;23;20026;-79
2022/04/01 06:49:16;;;;;;;1.98;1.70;;;;;;;;;;6073647;23;20026;-79
2022/04/01 06:52:02;;;;;;;1.40;1.30;;;;;;;;;;6083403;23;20019;-80
2022/04/01 06:55:05;;;;;;;1.33;1.23;;;;;;;;;;6015241;23;20034;-80
2022/04/01 06:58:11;;;;;;;1.48;1.38;;;;;;;;;;6087708;23;20022;-81
2022/04/01 07:00:45;;;;;;;1.08;1.08;;;;;;;;;;6101573;23;20022;-80
2022/04/01 07:03:13;;;;;;;1.15;1.15;;;;;;;;;;6104151;23;20751;-79
2022/04/01 07:05:42;;;;;;;2.53;1.17;;;;;;;;;;6072067;23;20037;-79
2022/04/01 07:08:11;;;;;;;1.98;1.88;;;;;;;;;;6102599;23;20018;-79
2022/04/01 07:10:39;;;;;;;1.00;1.00;;;;;;;;;;6105038;23;20010;-80
2022/04/01 07:13:10;;;;;;;1.10;1.10;;;;;;;;;;6100331;23;20752;-79
2022/04/01 07:15:38;;;;;;;1.20;1.10;;;;;;;;;;6104878;23;20431;-80
2022/04/01 07:18:07;;;;;;;1.27;1.17;;;;;;;;;;6095202;23;20027;-79
2022/04/01 07:20:35;;;;;;;1.40;1.35;;;;;;;;;;6068357;23;20450;-79
2022/04/01 07:23:04;;;;;;;1.60;1.50;;;;;;;;;;6104163;23;20018;-80
2022/04/01 07:25:32;;;;;;;1.08;1.08;;;;;;;;;;6044734;23;20022;-79
2022/04/01 07:28:01;;;;;;;1.48;1.38;;;;;;;;;;6104195;23;20022;-80
2022/04/01 07:30:29;;;;;;;1.55;1.45;;;;;;;;;;6067672;23;20027;-80
2022/04/01 07:32:58;;;;;;;1.20;1.20;;;;;;;;;;6099449;23;20683;-80
2022/04/01 07:35:27;;;;;;;1.17;1.08;;;;;;;;;;6104084;23;20019;-80
2022/04/01 07:37:55;;;;;;;1.52;1.15;;;;;;;;;;6095796;23;20033;-83
2022/04/01 07:40:24;;;;;;;1.42;1.33;;;;;;;;;;6102967;23;20017;-81
2022/04/01 07:42:52;;;;;;;1.00;1.00;;;;;;;;;;6104738;23;20015;-81
2022/04/01 07:45:21;;;;;;;1.45;1.13;;;;;;;;;;6099034;23;20030;-80
2022/04/01 07:47:50;;;;;;;1.52;1.42;;;;;;;;;;6093952;23;20030;-81
2022/04/01 07:50:18;;;;;;;1.60;1.10;;;;;;;;;;6067956;23;20025;-81
2022/04/01 07:53:10;;;;;;;1.13;1.13;;;;;;;;;;6061986;23;20019;-90
2022/04/01 07:56:08;;;;;;;0.85;0.85;;;;;;;;;;6033482;23;20439;-89
2022/04/01 07:58:51;;;;;;;0.98;0.90;;;;;;;;;;6001453;23;20019;-90
2022/04/01 08:01:46;;;;;;;0.95;0.95;;;;;;;;;;6038899;23;20030;-91
2022/04/01 08:04:26;;;;;;;1.00;1.00;;;;;;;;;;6042733;23;20507;-89
2022/04/01 08:07:59;;;;;;;1.02;1.02;;;;;;;;;;6004103;23;20027;-88
2022/04/01 08:10:47;;;;;;;0.93;0.93;;;;;;;;;;6008985;23;20031;-89
2022/04/01 08:14:12;;;;;;;1.23;1.17;;;;;;;;;;5980882;23;20039;-90
2022/04/01 08:17:12;;;;;;;;;;;;;;;;;;;;;
2022/04/01 08:19:44;;;;;;;1.23;1.13;;;;;;;;;;6069843;23;20030;-90
2022/04/01 08:22:22;;;;;;;1.58;1.58;;;;;;;;;;6094685;23;20019;-89
2022/04/01 08:25:17;;;;;;;1.00;1.00;;;;;;;;;;6099897;23;20022;-90
2022/04/01 08:28:31;;;;;;;1.98;1.38;;;;;;;;;;6119789;23;20466;-90
2022/04/01 08:35:03;;;;;;;0.80;0.80;;;;;;;;;;6075984;23;20022;-89
2022/04/01 08:38:20;;;;;;;0.90;0.90;;;;;;;;;;6081926;23;20022;-89
2022/04/01 08:40:56;;;;;;;0.90;0.90;;;;;;;;;;6121993;23;20034;-83
2022/04/01 08:43:26;;;;;;;1.73;1.45;;;;;;;;;;6074235;23;20018;-83
2022/04/01 08:49:54;;;;;;;;;;;;;;;;;;;;;
2022/04/01 08:53:03;;;;;;;;;;;;;;;;;;;;;
2022/04/01 08:56:20;;;;;;;1.00;1.00;;;;;;;;;;6001704;23;20491;-90
2022/04/01 08:59:38;;;;;;;1.05;1.05;;;;;;;;;;6102954;23;20030;-91
2022/04/01 09:02:54;;;;;;;1.92;0.88;;;;;;;;;;5992389;23;20020;-90
2022/04/01 09:05:44;;;;;;;1.10;1.10;;;;;;;;;;6015143;23;20344;-89
2022/04/01 09:08:48;;;;;;;0.90;0.90;;;;;;;;;;6038448;23;20049;-89
2022/04/01 09:11:29;;;;;;;2.70;1.15;;;;;;;;;;6016246;23;20348;-91
2022/04/01 09:14:29;;;;;;;0.75;0.75;;;;;;;;;;6033404;23;20722;-91
2022/04/01 09:17:15;;;;;;;1.33;1.33;;;;;;;;;;6011627;23;20042;-91
2022/04/01 09:20:14;;;;;;;0.90;0.90;;;;;;;;;;6009548;23;20514;-90
2022/04/01 09:23:47;;;;;;;0.90;0.90;;;;;;;;;;5973523;23;20036;-90
2022/04/01 09:29:55;;;;;;;1.08;1.08;;;;;;;;;;5961951;23;20028;-90
2022/04/01 09:32:25;;;;;;;1.20;1.20;;;;;;;;;;5954676;23;20029;-90
2022/04/01 09:35:02;;;;;;;1.05;0.73;;;;;;;;;;6069268;23;20497;-90
2022/04/01 09:37:47;;;;;;;0.90;0.90;;;;;;;;;;6062644;23;20027;-90
2022/04/01 09:40:26;;;;;;;1.05;1.05;;;;;;;;;;6046935;23;20024;-91
2022/04/01 09:43:35;;;;;;;1.23;0.90;;;;;;;;;;6048988;23;20022;-91
2022/04/01 09:49:46;;;;;;;1.35;1.30;;;;;;;;;;6038096;23;20030;-91
2022/04/01 09:52:36;;;;;;;1.23;1.13;;;;;;;;;;6093114;23;20014;-90
2022/04/01 09:59:04;;;;;;;1.00;1.00;;;;;;;;;;6063517;23;20026;-91
2022/04/01 10:02:07;;;;;;;0.80;0.80;;;;;;;;;;6078663;23;20358;-91
2022/04/01 10:04:40;;;;;;;0.85;0.85;;;;;;;;;;6095634;23;20061;-89
2022/04/01 10:07:32;;;;;;;0.80;0.80;;;;;;;;;;6071446;23;20027;-90
2022/04/01 10:17:43;;;;;;;1.10;1.10;;;;;;;;;;5935446;23;20906;-83
2022/04/01 10:20:18;;;;;;;8.73;1.42;;;;;;;;;;5910818;24;20021;-89
2022/04/01 10:23:03;;;;;;;1.45;1.42;;;;;;;;;;5958191;23;20028;-90
2022/04/01 10:26:04;;;;;;;0.90;0.90;;;;;;;;;;6009336;23;20034;-90
2022/04/01 10:28:38;;;;;;;0.90;0.90;;;;;;;;;;6028208;23;20352;-90
2022/04/01 10:31:13;;;;;;;0.90;0.90;;;;;;;;;;6039201;23;20452;-90
2022/04/01 10:33:53;;;;;;;1.88;1.23;;;;;;;;;;6010480;23;20027;-91
2022/04/01 10:36:31;;;;;;;5.32;1.42;;;;;;;;;;6038629;23;20024;-89
2022/04/01 10:39:11;;;;;;;1.85;1.75;;;;;;;;;;6037694;23;20038;-90
2022/04/01 10:41:48;;;;;;;;;;;;;;;;;;6042815;23;20023;-89
2022/04/01 10:53:26;;;;;;;1.73;1.15;;;;;;;;;;5873229;24;20052;-89
2022/04/01 10:55:57;;;;;;;;;;;;;;;;;;5915315;23;20039;-89
2022/04/01 10:58:38;;;;;;;1.13;1.13;;;;;;;;;;5972953;23;19925;-90
2022/04/01 11:01:35;;;;;;;1.23;1.20;;;;;;;;;;5978186;23;20028;-90
2022/04/01 11:04:20;;;;;;;1.20;1.10;;;;;;;;;;5955981;24;20020;-90
2022/04/01 11:07:00;;;;;;;1.00;1.00;;;;;;;;;;5966094;24;20034;-90
2022/04/01 11:13:47;;;;;;;1.35;1.35;;;;;;;;;;6008087;23;20024;-89
2022/04/01 11:16:42;;;;;;;1.25;1.25;;;;;;;;;;5995430;23;20168;-89
2022/04/01 11:20:04;;;;;;;1.23;1.17;;;;;;;;;;5931418;23;20036;-90
2022/04/01 11:22:36;;;;;;;1.20;1.20;;;;;;;;;;6013648;23;20028;-88
2022/04/01 11:25:13;;;;;;;1.17;1.17;;;;;;;;;;6057835;23;20030;-88
2022/04/01 11:31:38;;;;;;;1.50;1.40;;;;;;;;;;5918983;24;20025;-88
2022/04/01 11:34:10;;;;;;;1.10;1.10;;;;;;;;;;5947879;24;20036;-88
2022/04/01 11:36:39;;;;;;;1.50;1.38;;;;;;;;;;5949896;24;20043;-89
2022/04/01 11:46:58;;;;;;;1.55;1.45;;;;;;;;;;5961126;23;20020;-85
2022/04/01 11:49:59;;;;;;;2.40;2.30;;;;;;;;;;5951827;24;20021;-88
2022/04/01 11:52:57;;;;;;;2.05;1.40;;;;;;;;;;6036887;23;20033;-88
2022/04/01 11:55:27;;;;;;;1.40;1.40;;;;;;;;;;6080725;23;20014;-89
2022/04/01 12:01:11;;;;;;;1.30;1.30;;;;;;;;;;6095390;23;20014;-89
2022/04/01 12:03:39;;;;;;;7.38;1.65;;;;;;;;;;6106766;23;20014;-89
2022/04/01 12:09:04;;;;;;;1.92;1.70;;;;;;;;;;6101691;23;20762;-88
2022/04/01 12:11:43;;;;;;;1.48;1.48;;;;;;;;;;6106543;23;20026;-89
2022/04/01 12:14:13;;;;;;;1.20;1.20;;;;;;;;;;6070824;23;20018;-89
2022/04/01 12:16:52;;;;;;;1.40;1.30;;;;;;;;;;6047440;23;20022;-89
2022/04/01 12:20:44;;;;;;;2.05;1.15;;;;;;;;;;6070788;23;20457;-87
2022/04/01 12:28:53;;;;;;;1.80;1.70;;;;;;;;;;5990073;23;20027;-89
2022/04/01 12:31:42;;;;;;;1.40;1.35;;;;;;;;;;5989477;24;20024;-89
2022/04/01 12:34:18;;;;;;;1.33;1.33;;;;;;;;;;5978852;24;20032;-89
2022/04/01 12:37:40;;;;;;;1.70;1.60;;;;;;;;;;5976811;23;20032;-87
2022/04/01 12:40:44;;;;;;;1.55;1.45;;;;;;;;;;6067946;23;20015;-88
2022/04/01 12:44:15;;;;;;;1.35;1.25;;;;;;;;;;6088688;23;20025;-87
2022/04/01 12:50:34;;;;;;;1.13;1.10;;;;;;;;;;6031930;23;20034;-88
2022/04/01 12:53:18;;;;;;;1.42;1.42;;;;;;;;;;6099664;23;20030;-88
2022/04/01 12:56:16;;;;;;;5.78;1.50;;;;;;;;;;6044379;23;20019;-88
2022/04/01 12:59:28;;;;;;;1.90;1.80;;;;;;;;;;6051131;23;20458;-89
2022/04/01 13:02:08;;;;;;;1.65;1.65;;;;;;;;;;6022462;23;20354;-88
2022/04/01 13:04:42;;;;;;;1.60;1.50;;;;;;;;;;6068125;23;20037;-88
2022/04/01 13:07:18;;;;;;;1.08;1.08;;;;;;;;;;6078815;23;20022;-88
2022/04/01 13:09:57;;;;;;;0.80;0.80;;;;;;;;;;6092524;23;20022;-89
2022/04/01 13:12:29;;;;;;;1.27;1.17;;;;;;;;;;6102757;23;20015;-87
2022/04/01 13:14:57;;;;;;;;;;;;;;;;;;6104232;23;20025;-88
2022/04/01 13:17:28;;;;;;;1.75;1.65;;;;;;;;;;6081594;23;19924;-87
2022/04/01 13:19:59;;;;;;;2.45;2.35;;;;;;;;;;6103895;23;20030;-88
2022/04/01 13:22:27;;;;;;;1.60;1.55;;;;;;;;;;6093917;23;20830;-87
2022/04/01 13:24:55;;;;;;;1.67;1.58;;;;;;;;;;6100465;23;20473;-88
2022/04/01 13:27:32;;;;;;;1.73;1.63;;;;;;;;;;6104137;23;20030;-87
2022/04/01 13:30:01;;;;;;;1.85;1.75;;;;;;;;;;6096021;23;20037;-88
2022/04/01 13:32:57;;;;;;;2.22;2.03;;;;;;;;;;6093992;23;20018;-89
2022/04/01 13:35:55;;;;;;;1.80;1.70;;;;;;;;;;6103111;23;20017;-87
2022/04/01 13:38:23;;;;;;;1.83;1.73;;;;;;;;;;6093978;23;20026;-88
2022/04/01 13:40:52;;;;;;;1.70;1.60;;;;;;;;;;6100623;23;20023;-87
2022/04/01 13:43:33;;;;;;;2.25;2.15;;;;;;;;;;6103776;23;20014;-81
2022/04/01 13:46:01;;;;;;;2.03;1.92;;;;;;;;;;6094618;23;20045;-81
2022/04/01 13:48:30;;;;;;;2.03;1.83;;;;;;;;;;6075528;23;20041;-87
2022/04/01 13:51:02;;;;;;;1.92;1.83;;;;;;;;;;6104312;23;20027;-87
2022/04/01 13:53:31;;;;;;;1.40;1.40;;;;;;;;;;6097068;23;20472;-88
2022/04/01 13:56:00;;;;;;;2.50;2.40;;;;;;;;;;6103596;23;20026;-88
2022/04/01 13:58:28;;;;;;;1.77;1.67;;;;;;;;;;6092854;23;20026;-88
2022/04/01 14:00:57;;;;;;;2.03;1.92;;;;;;;;;;6074301;23;20045;-88
2022/04/01 14:03:26;;;;;;;2.08;1.98;;;;;;;;;;6093495;23;20030;-87
2022/04/01 14:06:32;;;;;;;2.00;1.90;;;;;;;;;;6071047;23;20442;-89
2022/04/01 14:09:03;;;;;;;2.17;2.00;;;;;;;;;;6084031;23;20035;-88
2022/04/01 14:11:45;;;;;;;2.60;2.40;;;;;;;;;;6061817;23;20027;-88
2022/04/01 14:14:15;;;;;;;2.45;2.28;;;;;;;;;;6038511;23;20030;-89
2022/04/01 14:16:44;;;;;;;1.85;1.75;;;;;;;;;;6040098;23;20022;-88
2022/04/01 14:19:45;;;;;;;2.33;2.22;;;;;;;;;;6039105;23;20166;-88
2022/04/01 14:22:22;;;;;;;2.67;2.47;;;;;;;;;;6050931;23;20382;-87
2022/04/01 14:25:05;;;;;;;2.10;2.00;;;;;;;;;;6061378;23;20031;-87
2022/04/01 14:27:37;;;;;;;1.88;1.77;;;;;;;;;;6037827;23;20347;-87
2022/04/01 14:30:28;;;;;;;;;;;;;;;;;;;;;
2022/04/01 14:33:17;;;;;;;2.00;1.90;;;;;;;;;;6049163;23;20027;-88
2022/04/01 14:35:48;;;;;;;1.80;1.70;;;;;;;;;;6069784;23;20023;-88
2022/04/01 14:38:45;;;;;;;2.17;2.08;;;;;;;;;;6062470;23;20081;-89
2022/04/01 14:41:24;;;;;;;2.28;2.13;;;;;;;;;;6067731;23;20034;-89
2022/04/01 14:44:19;;;;;;;2.10;2.00;;;;;;;;;;6078796;23;20025;-89
2022/04/01 14:46:47;;;;;;;2.70;2.50;;;;;;;;;;6106448;23;20014;-88
2022/04/01 14:49:17;;;;;;;2.10;2.00;;;;;;;;;;6097370;23;20033;-89
2022/04/01 14:51:46;;;;;;;2.13;2.03;;;;;;;;;;6070030;23;20019;-89
2022/04/01 14:54:15;;;;;;;1.80;1.70;;;;;;;;;;6093404;23;20350;-89
2022/04/01 14:56:53;;;;;;;1.85;1.35;;;;;;;;;;6076953;23;20026;-88
2022/04/01 14:59:24;;;;;;;2.95;2.75;;;;;;;;;;6105077;23;20015;-89
2022/04/01 15:01:53;;;;;;;1.88;1.73;;;;;;;;;;6098655;23;20026;-88
2022/04/01 15:04:21;;;;;;;3.22;3.03;;;;;;;;;;6103318;23;20447;-88
2022/04/01 15:06:49;;;;;;;4.80;2.15;;;;;;;;;;6106104;23;20446;-88
2022/04/01 15:09:41;;;;;;;4.32;2.65;;;;;;;;;;6093710;23;20030;-88
2022/04/01 15:12:10;;;;;;;2.60;2.42;;;;;;;;;;6095487;23;20018;-87
2022/04/01 15:14:40;;;;;;;1.77;1.67;;;;;;;;;;6094980;23;20046;-87
2022/04/01 15:17:10;;;;;;;1.95;1.83;;;;;;;;;;6100943;23;20030;-88
2022/04/01 15:19:39;;;;;;;1.95;1.85;;;;;;;;;;6078632;23;20030;-87
2022/04/01 15:22:07;;;;;;;6.05;2.40;;;;;;;;;;6071337;23;20067;-88
2022/04/01 15:24:36;;;;;;;2.30;2.15;;;;;;;;;;6063427;23;20022;-88
2022/04/01 15:27:16;;;;;;;2.00;1.90;;;;;;;;;;6047167;23;20454;-90
2022/04/01 15:29:44;;;;;;;1.92;1.83;;;;;;;;;;6045266;23;20037;-86
2022/04/01 15:32:12;;;;;;;2.38;2.17;;;;;;;;;;6046642;23;20022;-87
2022/04/01 15:34:53;;;;;;;2.13;1.92;;;;;;;;;;6070329;23;20350;-89
2022/04/01 15:37:32;;;;;;;2.28;2.03;;;;;;;;;;6068707;23;20022;-88
2022/04/01 15:40:09;;;;;;;2.15;2.05;;;;;;;;;;6070329;23;20030;-88
2022/04/01 15:42:41;;;;;;;;;;;;;;;;;;6089625;23;20034;-88
2022/04/01 15:45:10;;;;;;;2.50;2.30;;;;;;;;;;6100124;23;20329;-79
2022/04/01 15:47:41;;;;;;;2.75;2.55;;;;;;;;;;6078129;23;20019;-80
2022/04/01 15:50:11;;;;;;;3.33;3.13;;;;;;;;;;6044431;23;20026;-88
2022/04/01 15:52:46;;;;;;;2.10;2.00;;;;;;;;;;6047778;23;20443;-89
2022/04/01 15:55:17;;;;;;;;;;;;;;;;;;6047039;23;20026;-88
2022/04/01 15:57:58;;;;;;;3.15;2.95;;;;;;;;;;6074090;23;19953;-88
2022/04/01 16:00:27;;;;;;;2.22;2.10;;;;;;;;;;6078091;23;20025;-87
2022/04/01 16:03:00;;;;;;;2.50;2.30;;;;;;;;;;6056248;23;20430;-88
2022/04/01 16:05:30;;;;;;;1.83;1.73;;;;;;;;;;6074412;23;20026;-89
2022/04/01 16:08:46;;;;;;;2.30;2.20;;;;;;;;;;6045462;23;20027;-87
2022/04/01 16:11:37;;;;;;;2.50;2.35;;;;;;;;;;6018969;23;20031;-90
2022/04/01 16:15:04;;;;;;;3.40;3.20;;;;;;;;;;6051324;23;20035;-89
2022/04/01 16:18:14;;;;;;;2.58;2.38;;;;;;;;;;6025412;23;20026;-88
2022/04/01 16:24:50;;;;;;;2.13;2.03;;;;;;;;;;6036326;23;20030;-88
2022/04/01 16:31:59;;;;;;;;;;;;;;;;;;6038961;23;20034;-89
2022/04/01 16:34:31;;;;;;;2.92;2.72;;;;;;;;;;6039998;23;19948;-89
2022/04/01 16:37:11;;;;;;;2.80;2.60;;;;;;;;;;6066964;23;20031;-88
2022/04/01 16:39:39;;;;;;;2.10;1.90;;;;;;;;;;6085097;23;20018;-88
2022/04/01 16:49:47;;;;;;;3.05;2.85;;;;;;;;;;6005400;23;20028;-89
2022/04/01 16:52:25;;;;;;;2.38;2.28;;;;;;;;;;6014930;23;20628;-89
2022/04/01 16:54:53;;;;;;;2.63;2.50;;;;;;;;;;6008811;23;20062;-89
2022/04/01 16:57:24;;;;;;;2.97;2.78;;;;;;;;;;6010816;23;20027;-88
2022/04/01 16:59:52;;;;;;;3.00;2.80;;;;;;;;;;6016129;23;20423;-89
2022/04/01 17:02:20;;;;;;;2.42;2.30;;;;;;;;;;6007424;23;20028;-89
2022/04/01 17:04:54;;;;;;;2.70;2.53;;;;;;;;;;6012051;23;20040;-88
2022/04/01 17:13:22;;;;;;;3.10;2.22;;;;;;;;;;6053152;23;20029;-89
2022/04/01 17:15:51;;;;;;;2.55;2.35;;;;;;;;;;6069935;23;20465;-89
2022/04/01 17:18:19;;;;;;;2.00;1.90;;;;;;;;;;6092383;23;20022;-89
2022/04/01 17:20:49;;;;;;;2.28;2.17;;;;;;;;;;6093298;23;20131;-89
2022/04/01 17:23:18;;;;;;;2.70;2.60;;;;;;;;;;6096216;23;20359;-89
2022/04/01 17:25:46;;;;;;;3.03;2.83;;;;;;;;;;6094965;23;20034;-89
2022/04/01 17:28:19;;;;;;;3.03;2.83;;;;;;;;;;6078775;23;20019;-89
2022/04/01 17:30:50;;;;;;;1.90;1.80;;;;;;;;;;6070742;23;20025;-89
2022/04/01 17:33:22;;;;;;;2.60;2.45;;;;;;;;;;6071330;23;20487;-89